createdAt,value
2022-09-28T00:00:49.254Z,10.19
2022-09-28T00:03:43.212Z,10.17
2022-09-28T00:06:32.277Z,10.16
2022-09-28T00:09:12.220Z,10.17
2022-09-28T00:12:07.276Z,10.17
2022-09-28T00:14:54.247Z,10.19
2022-09-28T00:17:27.328Z,10.21
2022-09-28T00:20:14.254Z,10.22
2022-09-28T00:22:54.229Z,10.23
2022-09-28T00:25:48.211Z,10.23
2022-09-28T00:28:35.260Z,10.22
2022-09-28T00:31:15.269Z,10.22
2022-09-28T00:34:11.246Z,10.19
2022-09-28T00:36:58.241Z,10.11
2022-09-28T00:39:42.273Z,10.09
2022-09-28T00:42:39.256Z,10.04
2022-09-28T00:45:33.255Z,9.98
2022-09-28T00:48:27.245Z,9.96
2022-09-28T00:51:18.228Z,9.95
2022-09-28T00:53:53.349Z,9.96
2022-09-28T00:56:43.236Z,9.95
2022-09-28T00:59:17.388Z,9.92
2022-09-28T01:02:04.289Z,9.92
2022-09-28T01:04:37.334Z,9.94
2022-09-28T01:07:25.264Z,9.96
2022-09-28T01:09:58.341Z,9.91
2022-09-28T01:12:45.266Z,9.89
2022-09-28T01:15:21.905Z,9.89
2022-09-28T01:18:23.278Z,9.88
2022-09-28T01:21:33.256Z,9.83
2022-09-28T01:25:02.259Z,9.79
2022-09-28T01:28:19.266Z,9.73
2022-09-28T01:31:22.328Z,9.70
2022-09-28T01:34:02.363Z,9.68
2022-09-28T01:36:55.251Z,9.65
2022-09-28T01:39:51.285Z,9.63
2022-09-28T01:42:49.257Z,9.55
2022-09-28T01:45:50.332Z,9.43
2022-09-28T01:48:29.390Z,9.37
2022-09-28T01:51:25.290Z,9.33
2022-09-28T01:54:03.385Z,9.29
2022-09-28T01:56:55.267Z,9.28
2022-09-28T01:59:35.864Z,9.27
2022-09-28T02:02:33.440Z,9.27
2022-09-28T02:05:14.374Z,9.28
2022-09-28T02:08:20.284Z,9.29
2022-09-28T02:11:21.412Z,9.24
2022-09-28T02:14:18.295Z,9.19
2022-09-28T02:16:54.402Z,9.18
2022-09-28T02:19:42.298Z,9.17
2022-09-28T02:22:23.529Z,9.19
2022-09-28T02:25:16.284Z,9.21
2022-09-28T02:28:09.277Z,9.19
2022-09-28T02:31:03.403Z,9.18
2022-09-28T02:33:51.297Z,9.17
2022-09-28T02:36:24.373Z,9.14
2022-09-28T02:39:11.324Z,9.14
2022-09-28T02:41:50.376Z,9.16
2022-09-28T02:45:04.307Z,9.16
2022-09-28T02:48:09.304Z,9.22
2022-09-28T02:51:09.422Z,9.27
2022-09-28T02:54:05.301Z,9.25
2022-09-28T02:56:58.411Z,9.28
2022-09-28T03:00:15.309Z,9.30
2022-09-28T03:03:12.313Z,9.31
2022-09-28T03:06:22.367Z,9.35
2022-09-28T03:09:28.330Z,9.34
2022-09-28T03:12:26.315Z,9.36
2022-09-28T03:15:35.335Z,9.38
2022-09-28T03:18:08.410Z,9.33
2022-09-28T03:20:56.307Z,9.29
2022-09-28T03:23:29.428Z,9.25
2022-09-28T03:26:20.339Z,9.20
2022-09-28T03:28:53.426Z,9.18
2022-09-28T03:31:40.363Z,9.16
2022-09-28T03:34:13.410Z,9.18
2022-09-28T03:37:00.343Z,9.18
2022-09-28T03:39:40.308Z,9.19
2022-09-28T03:42:34.320Z,9.22
2022-09-28T03:45:28.370Z,9.25
2022-09-28T03:48:15.362Z,9.25
2022-09-28T03:50:55.320Z,9.21
2022-09-28T03:53:50.314Z,9.16
2022-09-28T03:56:37.320Z,9.12
2022-09-28T03:59:11.433Z,9.16
2022-09-28T04:01:58.392Z,9.18
2022-09-28T04:04:31.477Z,9.22
2022-09-28T04:07:18.324Z,9.25
2022-09-28T04:09:51.437Z,9.26
2022-09-28T04:12:38.335Z,9.27
2022-09-28T04:15:11.440Z,9.26
2022-09-28T04:17:58.356Z,9.26
2022-09-28T04:20:31.431Z,9.25
2022-09-28T04:23:19.341Z,9.24
2022-09-28T04:25:58.523Z,9.20
2022-09-28T04:29:06.777Z,9.13
2022-09-28T04:31:56.486Z,9.08
2022-09-28T04:34:44.451Z,9.07
2022-09-28T04:37:24.355Z,9.06
2022-09-28T04:40:11.366Z,9.06
2022-09-28T04:42:51.343Z,9.07
2022-09-28T04:45:45.391Z,9.03
2022-09-28T04:48:33.358Z,9.00
2022-09-28T04:51:16.345Z,8.97
2022-09-28T04:54:03.355Z,8.97
2022-09-28T04:56:36.458Z,8.98
2022-09-28T04:59:23.345Z,8.98
2022-09-28T05:02:03.421Z,8.97
2022-09-28T05:04:57.391Z,8.95
2022-09-28T05:07:44.371Z,8.90
2022-09-28T05:10:18.689Z,8.89
2022-09-28T05:13:05.385Z,8.91
2022-09-28T05:15:38.447Z,8.90
2022-09-28T05:18:25.361Z,8.92
2022-09-28T05:20:58.471Z,8.93
2022-09-28T05:23:46.372Z,8.93
2022-09-28T05:26:26.396Z,8.92
2022-09-28T05:29:20.370Z,8.93
2022-09-28T05:32:08.405Z,8.94
2022-09-28T05:34:41.483Z,8.93
2022-09-28T05:37:28.357Z,8.93
2022-09-28T05:40:01.546Z,8.90
2022-09-28T05:42:48.374Z,8.84
2022-09-28T05:45:43.432Z,8.81
2022-09-28T05:48:30.375Z,8.88
2022-09-28T05:51:10.367Z,8.91
2022-09-28T05:54:00.654Z,8.94
2022-09-28T05:56:44.335Z,8.94
2022-09-28T05:59:31.404Z,8.91
2022-09-28T06:02:11.422Z,8.91
2022-09-28T06:04:58.393Z,8.95
2022-09-28T06:07:31.538Z,9.03
2022-09-28T06:10:18.389Z,9.07
2022-09-28T06:12:58.389Z,9.16
2022-09-28T06:15:55.385Z,9.27
2022-09-28T06:18:42.401Z,9.36
2022-09-28T06:21:22.400Z,9.47
2022-09-28T06:24:10.394Z,9.57
2022-09-28T06:26:50.392Z,9.66
2022-09-28T06:29:37.405Z,9.73
2022-09-28T06:32:13.941Z,9.83
2022-09-28T06:35:00.414Z,9.90
2022-09-28T06:37:33.630Z,10.01
2022-09-28T06:40:20.438Z,10.11
2022-09-28T06:43:16.389Z,10.18
2022-09-28T06:46:03.472Z,10.21
2022-09-28T06:48:43.384Z,10.14
2022-09-28T06:51:31.435Z,10.08
2022-09-28T06:54:04.535Z,10.02
2022-09-28T06:56:51.411Z,9.95
2022-09-28T06:59:27.641Z,9.90
2022-09-28T07:02:17.440Z,9.85
2022-09-28T07:05:03.416Z,9.80
2022-09-28T07:07:57.432Z,9.80
2022-09-28T07:11:02.442Z,9.84
2022-09-28T07:13:51.210Z,9.86
2022-09-28T07:16:28.472Z,9.88
2022-09-28T07:19:16.438Z,9.91
2022-09-28T07:22:00.885Z,9.94
2022-09-28T07:24:43.425Z,9.96
2022-09-28T07:27:28.169Z,10.03
2022-09-28T07:30:08.441Z,10.09
2022-09-28T07:32:49.593Z,10.12
2022-09-28T07:35:29.417Z,10.12
2022-09-28T07:38:14.430Z,10.13
2022-09-28T07:41:06.429Z,10.20
2022-09-28T07:44:01.455Z,10.23
2022-09-28T07:46:55.429Z,10.17
2022-09-28T07:49:49.444Z,10.14
2022-09-28T07:52:36.444Z,10.13
2022-09-28T07:55:10.530Z,10.13
2022-09-28T07:58:02.461Z,10.13
2022-09-28T08:00:35.521Z,10.16
2022-09-28T08:03:29.444Z,10.26
2022-09-28T08:06:12.685Z,10.36
2022-09-28T08:09:02.467Z,10.48
2022-09-28T08:11:36.583Z,10.53
2022-09-28T08:14:23.440Z,10.58
2022-09-28T08:16:56.557Z,10.62
2022-09-28T08:20:01.442Z,10.72
2022-09-28T08:22:34.589Z,10.79
2022-09-28T08:25:21.449Z,10.82
2022-09-28T08:27:54.530Z,10.85
2022-09-28T08:30:41.500Z,10.93
2022-09-28T08:33:14.532Z,11.01
2022-09-28T08:36:04.461Z,11.05
2022-09-28T08:38:38.573Z,11.11
2022-09-28T08:41:31.465Z,11.17
2022-09-28T08:44:14.651Z,11.21
2022-09-28T08:47:10.444Z,11.20
2022-09-28T08:49:50.646Z,11.20
2022-09-28T08:52:44.452Z,11.18
2022-09-28T08:55:23.570Z,11.22
2022-09-28T08:58:24.465Z,11.25
2022-09-28T09:00:59.738Z,11.25
2022-09-28T09:03:48.485Z,11.28
2022-09-28T09:06:51.473Z,11.33
2022-09-28T09:09:56.497Z,11.43
2022-09-28T09:12:37.563Z,11.61
2022-09-28T09:15:54.551Z,11.69
2022-09-28T09:18:44.474Z,11.75
2022-09-28T09:22:01.508Z,11.76
2022-09-28T09:24:48.474Z,11.73
2022-09-28T09:27:31.500Z,11.70
2022-09-28T09:30:31.469Z,11.68
2022-09-28T09:33:46.486Z,11.73
2022-09-28T09:36:41.478Z,11.87
2022-09-28T09:39:17.559Z,12.01
2022-09-28T09:42:13.492Z,12.08
2022-09-28T09:45:22.476Z,12.10
2022-09-28T09:48:15.493Z,12.09
2022-09-28T09:50:57.866Z,12.20
2022-09-28T09:53:50.507Z,12.37
2022-09-28T09:56:34.691Z,12.45
2022-09-28T09:59:30.506Z,12.60
2022-09-28T10:02:03.745Z,12.72
2022-09-28T10:04:53.498Z,12.81
2022-09-28T10:07:43.777Z,12.89
2022-09-28T10:10:45.503Z,12.95
2022-09-28T10:13:25.534Z,13.00
2022-09-28T10:16:20.542Z,13.07
2022-09-28T10:19:14.587Z,13.10
2022-09-28T10:22:01.507Z,13.11
2022-09-28T10:24:48.503Z,13.11
2022-09-28T10:27:45.520Z,13.17
2022-09-28T10:30:32.559Z,13.15
2022-09-28T10:33:05.611Z,13.12
2022-09-28T10:35:54.508Z,13.10
2022-09-28T10:38:36.514Z,13.05
2022-09-28T10:41:30.509Z,13.04
2022-09-28T10:44:31.492Z,13.09
2022-09-28T10:47:23.520Z,13.11
2022-09-28T10:49:58.593Z,13.13
2022-09-28T10:52:46.542Z,13.12
2022-09-28T10:55:34.514Z,13.07
2022-09-28T10:58:07.632Z,13.16
2022-09-28T11:00:55.702Z,13.25
2022-09-28T11:03:41.535Z,13.31
2022-09-28T11:06:40.531Z,13.37
2022-09-28T11:09:35.506Z,13.42
2022-09-28T11:12:12.633Z,13.45
2022-09-28T11:15:09.528Z,13.46
2022-09-28T11:17:53.538Z,13.45
2022-09-28T11:20:48.545Z,13.45
2022-09-28T11:23:44.535Z,13.47
2022-09-28T11:26:38.542Z,13.51
2022-09-28T11:29:50.516Z,13.46
2022-09-28T11:32:23.646Z,13.41
2022-09-28T11:35:10.552Z,13.34
2022-09-28T11:38:32.569Z,13.35
2022-09-28T11:41:50.544Z,13.40
2022-09-28T11:44:55.555Z,13.47
2022-09-28T11:47:49.542Z,13.49
2022-09-28T11:50:51.557Z,13.50
2022-09-28T11:53:56.530Z,13.52
2022-09-28T11:56:50.562Z,13.58
2022-09-28T11:59:37.565Z,13.63
2022-09-28T12:02:24.631Z,13.68
2022-09-28T12:05:25.094Z,13.75
2022-09-28T12:08:20.547Z,13.80
2022-09-28T12:10:59.994Z,13.84
2022-09-28T12:13:51.553Z,13.90
2022-09-28T12:17:10.974Z,13.91
2022-09-28T12:20:06.563Z,13.93
2022-09-28T12:23:05.572Z,13.95
2022-09-28T12:25:56.567Z,13.96
2022-09-28T12:28:47.559Z,13.96
2022-09-28T12:31:33.575Z,13.95
2022-09-28T12:34:20.576Z,13.95
2022-09-28T12:36:56.660Z,13.94
2022-09-28T12:39:58.315Z,13.89
2022-09-28T12:42:39.212Z,13.82
2022-09-28T12:46:12.799Z,13.82
2022-09-28T12:52:49.679Z,13.94
2022-09-28T12:55:40.592Z,13.98
2022-09-28T12:58:39.588Z,14.02
2022-09-28T13:01:46.647Z,14.01
2022-09-28T13:04:45.592Z,14.07
2022-09-28T13:07:47.574Z,14.09
2022-09-28T13:10:47.579Z,14.14
2022-09-28T13:13:39.583Z,14.12
2022-09-28T13:16:57.189Z,14.11
2022-09-28T13:19:52.007Z,14.05
2022-09-28T13:22:56.606Z,14.02
2022-09-28T13:25:36.180Z,13.95
2022-09-28T13:28:27.411Z,13.88
2022-09-28T13:31:10.586Z,13.90
2022-09-28T13:34:05.618Z,13.92
2022-09-28T13:36:59.593Z,13.92
2022-09-28T13:39:52.609Z,13.88
2022-09-28T13:42:37.615Z,13.84
2022-09-28T13:46:03.627Z,13.83
2022-09-28T13:48:59.628Z,13.84
2022-09-28T13:51:35.708Z,13.82
2022-09-28T13:54:51.619Z,13.82
2022-09-28T13:57:25.402Z,13.80
2022-09-28T14:00:17.615Z,13.78
2022-09-28T14:02:54.813Z,13.76
2022-09-28T14:09:11.995Z,13.74
2022-09-28T14:12:10.630Z,13.68
2022-09-28T14:14:58.718Z,13.66
2022-09-28T14:18:04.621Z,13.63
2022-09-28T14:20:37.723Z,13.61
2022-09-28T14:23:49.628Z,13.57
2022-09-28T14:26:48.718Z,13.53
2022-09-28T14:29:42.626Z,13.49
2022-09-28T14:32:22.631Z,13.47
2022-09-28T14:35:47.619Z,13.45
2022-09-28T14:39:20.646Z,13.45
2022-09-28T14:42:15.651Z,13.44
2022-09-28T14:45:14.624Z,13.39
2022-09-28T14:48:18.657Z,13.37
2022-09-28T14:51:31.672Z,13.36
2022-09-28T14:54:23.657Z,13.34
2022-09-28T14:57:17.622Z,13.30
2022-09-28T15:00:06.703Z,13.27
2022-09-28T15:02:43.744Z,13.26
2022-09-28T15:05:34.701Z,13.24
2022-09-28T15:08:14.644Z,13.19
2022-09-28T15:11:11.632Z,13.14
2022-09-28T15:14:18.742Z,13.12
2022-09-28T15:17:14.637Z,13.07
2022-09-28T15:20:15.663Z,13.06
2022-09-28T15:23:00.648Z,13.02
2022-09-28T15:25:54.750Z,12.94
2022-09-28T15:28:49.657Z,12.92
2022-09-28T15:31:53.540Z,12.90
2022-09-28T15:34:57.657Z,12.85
2022-09-28T15:37:42.687Z,12.80
2022-09-28T15:40:39.728Z,12.79
2022-09-28T15:43:40.659Z,12.77
2022-09-28T15:46:34.720Z,12.77
2022-09-28T15:49:50.660Z,12.72
2022-09-28T15:52:50.903Z,12.68
2022-09-28T15:55:43.667Z,12.67
2022-09-28T15:58:20.226Z,12.64
2022-09-28T16:01:32.699Z,12.61
2022-09-28T16:04:05.773Z,12.58
2022-09-28T16:07:11.723Z,12.56
2022-09-28T16:10:27.680Z,12.51
2022-09-28T16:13:23.689Z,12.52
2022-09-28T16:16:06.812Z,12.50
2022-09-28T16:18:55.675Z,12.47
2022-09-28T16:21:45.829Z,12.48
2022-09-28T16:24:44.680Z,12.42
2022-09-28T16:27:52.678Z,12.39
2022-09-28T16:30:48.757Z,12.59
2022-09-28T16:33:44.704Z,12.58
2022-09-28T16:36:20.822Z,12.53
2022-09-28T16:39:07.688Z,12.50
2022-09-28T16:41:40.866Z,12.46
2022-09-28T16:44:43.684Z,12.41
2022-09-28T16:47:40.690Z,12.36
2022-09-28T16:50:28.709Z,12.32
2022-09-28T16:53:35.699Z,12.31
2022-09-28T16:56:29.719Z,12.28
2022-09-28T16:59:16.817Z,12.25
2022-09-28T17:01:49.832Z,12.26
2022-09-28T17:04:36.704Z,12.25
2022-09-28T17:07:16.701Z,12.26
2022-09-28T17:10:03.707Z,12.26
2022-09-28T17:12:36.802Z,12.26
2022-09-28T17:15:25.781Z,12.24
2022-09-28T17:18:05.722Z,12.24
2022-09-28T17:21:02.692Z,12.24
2022-09-28T17:23:50.709Z,12.23
2022-09-28T17:26:36.852Z,12.23
2022-09-28T17:29:24.736Z,12.23
2022-09-28T17:31:57.801Z,12.23
2022-09-28T17:34:51.536Z,12.22
2022-09-28T17:37:29.849Z,12.22
2022-09-28T17:40:32.754Z,12.22
2022-09-28T17:43:06.207Z,12.20
2022-09-28T17:46:00.775Z,12.20
2022-09-28T17:48:54.730Z,12.17
2022-09-28T17:51:45.717Z,12.15
2022-09-28T17:54:21.136Z,12.12
2022-09-28T17:57:07.731Z,12.10
2022-09-28T17:59:40.837Z,12.09
2022-09-28T18:02:27.763Z,12.08
2022-09-28T18:05:08.742Z,12.07
2022-09-28T18:08:04.763Z,12.05
2022-09-28T18:10:58.738Z,12.04
2022-09-28T18:13:45.729Z,12.02
2022-09-28T18:16:28.951Z,12.00
2022-09-28T18:19:22.751Z,12.00
2022-09-28T18:22:09.731Z,11.96
2022-09-28T18:24:42.830Z,11.96
2022-09-28T18:27:29.751Z,11.95
2022-09-28T18:30:10.734Z,11.96
2022-09-28T18:32:57.742Z,11.97
2022-09-28T18:35:37.752Z,11.98
2022-09-28T18:38:31.770Z,11.99
2022-09-28T18:41:28.760Z,11.99
2022-09-28T18:44:23.755Z,12.00
2022-09-28T18:47:19.754Z,11.98
2022-09-28T18:50:06.758Z,11.97
2022-09-28T18:52:42.848Z,11.97
2022-09-28T18:55:29.747Z,11.99
2022-09-28T18:58:02.853Z,11.98
2022-09-28T19:00:49.820Z,11.98
2022-09-28T19:03:23.083Z,11.98
2022-09-28T19:06:10.786Z,11.97
2022-09-28T19:08:50.796Z,11.97
2022-09-28T19:11:44.762Z,11.97
2022-09-28T19:14:31.768Z,11.97
2022-09-28T19:17:11.848Z,11.97
2022-09-28T19:19:58.769Z,11.95
2022-09-28T19:22:38.765Z,11.96
2022-09-28T19:25:25.763Z,11.96
2022-09-28T19:28:05.843Z,11.96
2022-09-28T19:31:08.761Z,11.96
2022-09-28T19:34:02.773Z,11.96
2022-09-28T19:36:49.786Z,11.95
2022-09-28T19:39:22.905Z,11.96
2022-09-28T19:42:09.768Z,11.95
2022-09-28T19:44:50.756Z,11.95
2022-09-28T19:47:44.769Z,11.94
2022-09-28T19:50:31.764Z,11.94
2022-09-28T19:53:06.696Z,11.94
2022-09-28T19:55:57.796Z,11.95
2022-09-28T19:58:36.893Z,11.95
2022-09-28T20:01:23.853Z,11.96
2022-09-28T20:03:56.888Z,11.96
2022-09-28T20:06:44.798Z,11.95
2022-09-28T20:09:24.790Z,11.96
2022-09-28T20:12:18.815Z,11.95
2022-09-28T20:15:05.795Z,11.94
2022-09-28T20:17:45.809Z,11.93
2022-09-28T20:20:35.800Z,11.93
2022-09-28T20:23:15.800Z,11.93
2022-09-28T20:26:09.811Z,11.90
2022-09-28T20:29:03.798Z,11.92
2022-09-28T20:31:51.902Z,11.92
2022-09-28T20:34:24.897Z,11.92
2022-09-28T20:37:11.871Z,11.93
2022-09-28T20:39:45.279Z,11.94
2022-09-28T20:42:31.784Z,11.93
2022-09-28T20:45:04.924Z,11.92
2022-09-28T20:47:51.807Z,11.93
2022-09-28T20:50:24.919Z,11.90
2022-09-28T20:53:11.835Z,11.88
2022-09-28T20:55:51.821Z,11.89
2022-09-28T20:58:45.819Z,11.88
2022-09-28T21:01:34.883Z,11.87
2022-09-28T21:04:10.969Z,11.88
2022-09-28T21:06:58.815Z,11.88
2022-09-28T21:09:32.518Z,11.87
2022-09-28T21:12:18.828Z,11.88
2022-09-28T21:14:51.896Z,11.87
2022-09-28T21:17:38.851Z,11.86
2022-09-28T21:20:19.824Z,11.83
2022-09-28T21:23:13.832Z,11.82
2022-09-28T21:26:13.822Z,11.81
2022-09-28T21:28:46.914Z,11.78
2022-09-28T21:31:36.889Z,11.78
2022-09-28T21:34:17.817Z,11.76
2022-09-28T21:37:14.810Z,11.75
2022-09-28T21:40:01.833Z,11.70
2022-09-28T21:42:34.937Z,11.70
2022-09-28T21:45:28.839Z,11.70
2022-09-28T21:48:15.818Z,11.67
2022-09-28T21:50:48.960Z,11.66
2022-09-28T21:53:38.852Z,11.64
2022-09-28T21:56:15.989Z,11.62
2022-09-28T21:59:02.885Z,11.63
2022-09-28T22:01:42.925Z,11.62
2022-09-28T22:04:29.857Z,11.61
2022-09-28T22:07:02.930Z,11.61
2022-09-28T22:09:53.392Z,11.61
2022-09-28T22:12:33.889Z,11.61
2022-09-28T22:15:27.854Z,11.61
2022-09-28T22:18:14.857Z,11.61
2022-09-28T22:20:47.985Z,11.60
2022-09-28T22:23:35.813Z,11.60
2022-09-28T22:26:17.793Z,11.60
2022-09-28T22:29:06.862Z,11.60
2022-09-28T22:31:43.073Z,11.58
2022-09-28T22:34:29.873Z,11.58
2022-09-28T22:37:10.941Z,11.60
2022-09-28T22:40:04.859Z,11.60
2022-09-28T22:42:51.860Z,11.61
2022-09-28T22:45:24.936Z,11.61
2022-09-28T22:48:11.874Z,11.61
2022-09-28T22:50:51.876Z,11.61
2022-09-28T22:53:46.854Z,11.62
2022-09-28T22:56:33.874Z,11.64
2022-09-28T22:59:13.909Z,11.64
2022-09-28T23:02:07.938Z,11.65
2022-09-28T23:05:01.876Z,11.66
2022-09-28T23:07:48.883Z,11.67
2022-09-28T23:10:22.017Z,11.66
2022-09-28T23:13:08.880Z,11.67
2022-09-28T23:15:42.062Z,11.66
2022-09-28T23:18:29.862Z,11.65
2022-09-28T23:21:07.981Z,11.66
2022-09-28T23:24:07.887Z,11.65
2022-09-28T23:26:47.899Z,11.65
2022-09-28T23:29:41.886Z,11.64
2022-09-28T23:32:35.889Z,11.62
2022-09-28T23:35:29.881Z,11.62
2022-09-28T23:38:24.886Z,11.60
2022-09-28T23:40:58.072Z,11.58
2022-09-28T23:43:44.890Z,11.58
2022-09-28T23:46:20.985Z,11.57
2022-09-28T23:49:07.894Z,11.55
2022-09-28T23:51:40.963Z,11.55
2022-09-28T23:54:27.903Z,11.53
2022-09-28T23:57:07.885Z,11.53
